Pride Of Burgundy — MQSQ9 — position and weather

sailwx.info

Track history (hours):
 
Tides and Currents Weather Stations Pressure Air Temp Water Temp Dewpoint Dewpoint Depression Visibility Wind Speed Wind Dir Waves Ship Positions

Pride Of Burgundy

Operator: P & O Ferries

Last reported at 2017-May-28 06:30 UTC. Time now 2017-May-28 06:45 UTC.
Position N 50°58' E 001°51'.

Length 180 m; draft 6.2 m.

Type: Passenger vessel. MMSI: 232001470.

Date/timePositionNaut miles runAvg speedWind from/ knotsBaromVisibWave heightAir tempDewpointWater temp
2017-May-28 06:30N 50°58' E 001°51'2 3.5
2017-May-28 06:00N 50°58' E 001°48'917.7
2017-May-28 05:30N 51°01' E 001°35'1020.3
2017-May-28 05:00N 51°07' E 001°22'1 2.2
2017-May-28 04:30N 51°07' E 001°20'0 0.1
2017-May-28 04:00N 51°07' E 001°20'714.1
2017-May-28 03:30N 51°04' E 001°30'918.7
2017-May-28 03:00N 50°59' E 001°43'510.7
2017-May-28 02:30N 50°58' E 001°51'0 0.0
2017-May-28 02:00N 50°58' E 001°51'0 0.0
2017-May-28 01:30N 50°58' E 001°51'4 7.1
2017-May-28 01:01N 50°58' E 001°45'1020.9
2017-May-28 00:31N 51°03' E 001°30'816.2
2017-May-28 00:01N 51°07' E 001°20'0 0.0
2017-May-27 23:30N 51°07' E 001°20'1 2.3
2017-May-27 23:00N 51°07' E 001°22'1019.5
2017-May-27 22:30N 51°02' E 001°35'918.8
2017-May-27 22:00N 50°58' E 001°49'1 2.8
2017-May-27 21:31N 50°58' E 001°51'0 0.0
2017-May-27 21:01N 50°58' E 001°51'4 8.7
2017-May-27 20:30N 50°58' E 001°44'917.4
2017-May-27 20:00N 51°02' E 001°32'918.2
2017-May-27 19:30N 51°07' E 001°20'0 0.3
2017-May-27 19:00N 51°07' E 001°20'0 0.0
2017-May-27 18:30N 51°07' E 001°20'0 0.0
2017-May-27 18:00N 51°07' E 001°20'0 0.0
2017-May-27 17:30N 51°07' E 001°20'4 8.0
2017-May-27 17:00N 51°06' E 001°26'918.2
2017-May-27 16:30N 51°01' E 001°38'816.4
2017-May-27 16:00N 50°58' E 001°51'0 0.8
2017-May-27 15:30N 50°58' E 001°51'0 0.8
2017-May-27 15:01N 50°58' E 001°51'918.8
2017-May-27 14:31N 51°01' E 001°36'1212.0
2017-May-27 13:30N 51°07' E 001°20'0 0.0
2017-May-27 13:00N 51°07' E 001°20'5 9.1
2017-May-27 12:30N 51°06' E 001°27'918.7
2017-May-27 12:00N 51°00' E 001°39'815.6
2017-May-27 11:31N 50°58' E 001°51'1 1.1
2017-May-27 11:00N 50°58' E 001°52'0 0.0
2017-May-27 10:31N 50°58' E 001°52'815.3
2017-May-27 10:00N 50°60' E 001°40'1019.3
2017-May-27 09:30N 51°05' E 001°27'5 9.8
2017-May-27 09:00N 51°07' E 001°20'0 0.0
2017-May-27 08:30N 51°07' E 001°20'0 0.3
2017-May-27 08:00N 51°07' E 001°20'816.2
2017-May-27 07:31N 51°03' E 001°31'918.5
2017-May-27 07:00N 50°58' E 001°44'5 9.3
2017-May-27 06:30N 50°58' E 001°51'0 0.0
2017-May-27 06:01N 50°58' E 001°51'3 6.4
2017-May-27 05:30N 50°58' E 001°46'817.0
2017-May-27 05:00N 50°60' E 001°33'816.9
2017-May-27 04:30N 51°06' E 001°24'3 5.4
2017-May-27 04:00N 51°07' E 001°20'0 0.0
2017-May-27 03:30N 51°07' E 001°20'0 0.2
2017-May-27 03:00N 51°07' E 001°20'611.7
2017-May-27 02:30N 51°05' E 001°29'816.1
2017-May-27 02:01N 51°01' E 001°39'815.3
2017-May-27 01:31N 50°58' E 001°51'0 0.5
2017-May-27 01:00N 50°58' E 001°51'0 0.0
2017-May-27 00:30N 50°58' E 001°51'3 6.0
2017-May-27 00:00N 50°58' E 001°46'918.1
2017-May-26 23:30N 50°60' E 001°32'816.5
2017-May-26 23:00N 51°06' E 001°23'2 4.7
2017-May-26 22:30N 51°07' E 001°20'0 0.0
2017-May-26 22:00N 51°07' E 001°20'510.5
2017-May-26 21:30N 51°06' E 001°28'1020.1
2017-May-26 21:00N 50°60' E 001°40'713.7
2017-May-26 20:30N 50°58' E 001°51'0 0.0
2017-May-26 20:01N 50°58' E 001°51'1 2.8
2017-May-26 19:30N 50°58' E 001°49'816.8
2017-May-26 19:00N 50°59' E 001°36'918.6
2017-May-26 18:30N 51°05' E 001°24'4 7.0
2017-May-26 18:00N 51°07' E 001°20'0 0.0
2017-May-26 17:30N 51°07' E 001°20'4 7.8
2017-May-26 17:00N 51°06' E 001°26'816.7
2017-May-26 16:30N 51°01' E 001°37'816.7
2017-May-26 16:00N 50°58' E 001°49'1 2.5
2017-May-26 15:30N 50°58' E 001°51'0 0.1
2017-May-26 15:00N 50°58' E 001°51'1616.2
2017-May-26 14:00N 51°05' E 001°27'510.6
2017-May-26 13:30N 51°07' E 001°20'0 0.0
2017-May-26 13:00N 51°07' E 001°20'3 5.4
2017-May-26 12:30N 51°07' E 001°24'1019.3
2017-May-26 12:00N 51°01' E 001°36'816.8
2017-May-26 11:31N 50°58' E 001°49'1 2.4
2017-May-26 11:00N 50°58' E 001°51'0 0.0
2017-May-26 10:30N 50°58' E 001°51'713.6
2017-May-26 10:00N 50°59' E 001°40'1019.6
2017-May-26 09:31N 51°05' E 001°27'510.7
2017-May-26 09:01N 51°07' E 001°20'0 0.0
2017-May-26 08:30N 51°07' E 001°20'0 0.1
2017-May-26 08:00N 51°07' E 001°20'816.3
2017-May-26 07:30N 51°04' E 001°32'918.3
2017-May-26 07:00N 50°59' E 001°44'5 9.4
2017-May-26 06:30N 50°58' E 001°51'0 0.0
2017-May-26 06:00N 50°58' E 001°51'0 0.0
2017-May-26 05:30N 50°58' E 001°51'713.2
2017-May-26 05:00N 50°59' E 001°41'917.7
2017-May-26 04:30N 51°04' E 001°30'712.7
2017-May-26 03:58N 51°07' E 001°20'0 0.0
2017-May-26 03:28N 51°07' E 001°20'0 0.1
2017-May-26 03:00N 51°07' E 001°20'714.2
2017-May-26 02:31N 51°06' E 001°31'917.1
2017-May-26 02:01N 50°60' E 001°41'713.1
2017-May-26 01:31N 50°58' E 001°51'0 0.3
2017-May-26 01:00N 50°58' E 001°51'0 0.0
2017-May-26 00:30N 50°58' E 001°51'0 0.0
2017-May-26 00:00N 50°58' E 001°51'0 0.0
2017-May-25 23:30N 50°58' E 001°51'0 0.0
2017-May-25 23:00N 50°58' E 001°51'0 0.0
2017-May-25 22:30N 50°58' E 001°51'0 0.0
2017-May-25 22:00N 50°58' E 001°51'0 0.0
2017-May-25 21:30N 50°58' E 001°51'0 0.0
2017-May-25 21:00N 50°58' E 001°51'0 0.0
2017-May-25 20:30N 50°58' E 001°51'0 0.0
2017-May-25 20:00N 50°58' E 001°51'510.2
2017-May-25 19:31N 50°58' E 001°43'917.1
2017-May-25 19:00N 51°03' E 001°31'814.9
2017-May-25 18:26N 51°07' E 001°20'0 0.0
2017-May-25 17:57N 51°07' E 001°20'0 0.1
2017-May-25 17:30N 51°07' E 001°20'816.4
2017-May-25 17:00N 51°04' E 001°32'1020.1
2017-May-25 16:31N 50°58' E 001°45'4 7.7
2017-May-25 16:01N 50°58' E 001°51'0 0.0
2017-May-25 15:30N 50°58' E 001°51'4 7.1
2017-May-25 15:00N 50°58' E 001°45'1818.2
2017-May-25 14:00N 51°07' E 001°20'0 0.0
2017-May-25 13:30N 51°07' E 001°20'0 0.2
2017-May-25 13:00N 51°07' E 001°20'815.5
2017-May-25 12:31N 51°05' E 001°32'918.8
2017-May-25 12:01N 50°59' E 001°43'510.0
2017-May-25 11:30N 50°58' E 001°51'0 0.0
2017-May-25 11:00N 50°58' E 001°51'0 0.0
2017-May-25 10:30N 50°58' E 001°51'815.3
2017-May-25 10:01N 50°59' E 001°39'1019.6
2017-May-25 09:31N 51°05' E 001°26'5 9.2
2017-May-25 09:00N 51°07' E 001°20'0 0.0
2017-May-25 08:30N 51°07' E 001°20'3 5.1
2017-May-25 08:01N 51°07' E 001°24'1020.1
2017-May-25 07:31N 51°01' E 001°37'917.9
2017-May-25 07:00N 50°58' E 001°51'0 0.5
2017-May-25 06:30N 50°58' E 001°51'0 0.0
2017-May-25 06:00N 50°58' E 001°51'2 4.0
2017-May-25 05:31N 50°58' E 001°48'917.2
2017-May-25 05:00N 51°00' E 001°35'1019.4
2017-May-25 04:30N 51°06' E 001°22'2 3.3
2017-May-25 03:58N 51°07' E 001°20'0 0.0
2017-May-25 03:29N 51°07' E 001°20'0 0.0
2017-May-25 02:59N 51°07' E 001°20'511.2
2017-May-25 02:31N 51°07' E 001°28'1019.3
2017-May-25 02:01N 51°00' E 001°39'715.0
2017-May-25 01:31N 50°58' E 001°51'0 0.1
2017-May-25 01:00N 50°58' E 001°51'0 0.0
2017-May-25 00:31N 50°58' E 001°51'1 2.4
2017-May-25 00:00N 50°58' E 001°49'918.2
2017-May-24 23:31N 50°60' E 001°35'816.3
2017-May-24 23:01N 51°05' E 001°25'4 7.9
2017-May-24 22:31N 51°07' E 001°20'0 0.0
2017-May-24 21:59N 51°07' E 001°20'4 8.3
2017-May-24 21:30N 51°06' E 001°26'1019.5
2017-May-24 21:00N 51°01' E 001°39'815.5
2017-May-24 20:30N 50°58' E 001°51'0 0.6
2017-May-24 20:01N 50°58' E 001°51'0 0.4
2017-May-24 19:31N 50°58' E 001°51'816.7
2017-May-24 19:00N 50°58' E 001°37'918.8
2017-May-24 18:30N 51°04' E 001°25'5 9.5
2017-May-24 17:59N 51°07' E 001°20'0 0.0
2017-May-24 17:29N 51°07' E 001°20'4 7.9
2017-May-24 17:00N 51°06' E 001°26'1019.9
2017-May-24 16:30N 51°00' E 001°38'816.3
2017-May-24 16:00N 50°58' E 001°51'0 0.2
2017-May-24 15:30N 50°58' E 001°51'1 2.9
2017-May-24 15:01N 50°58' E 001°49'1818.2
2017-May-24 14:01N 51°06' E 001°23'2 4.0
2017-May-24 13:30N 51°07' E 001°20'0 0.0
2017-May-24 13:00N 51°07' E 001°20'713.6
2017-May-24 12:31N 51°05' E 001°30'918.7
2017-May-24 12:00N 50°59' E 001°42'611.5
2017-May-24 11:30N 50°58' E 001°51'0 0.0
2017-May-24 11:00N 50°58' E 001°51'4 7.5
2017-May-24 10:30N 50°58' E 001°45'918.4
2017-May-24 10:01N 51°01' E 001°31'918.5
2017-May-24 09:31N 51°07' E 001°20'0 0.4
2017-May-24 09:00N 51°07' E 001°20'0 0.0
2017-May-24 08:30N 51°07' E 001°20'3 5.8
2017-May-24 08:00N 51°07' E 001°25'714.3
2017-May-24 07:30N 51°03' E 001°34'917.3
2017-May-24 07:01N 50°58' E 001°45'4 7.6
2017-May-24 06:30N 50°58' E 001°51'0 0.0
2017-May-24 06:00N 50°58' E 001°51'4 7.4
2017-May-24 05:30N 50°58' E 001°45'918.3
2017-May-24 05:00N 51°01' E 001°32'918.1
2017-May-24 04:31N 51°07' E 001°21'0 0.7
2017-May-24 04:01N 51°07' E 001°20'0 0.0
2017-May-24 03:30N 51°07' E 001°20'0 0.3
2017-May-24 03:00N 51°07' E 001°20'714.1
2017-May-24 02:30N 51°05' E 001°30'816.5
2017-May-24 02:00N 50°60' E 001°41'612.9
2017-May-24 01:30N 50°58' E 001°51'0 0.1
2017-May-24 01:00N 50°58' E 001°51'0 0.0
2017-May-24 00:30N 50°58' E 001°51'715.0
2017-May-24 00:01N 50°58' E 001°39'918.8
2017-May-23 23:31N 51°04' E 001°27'611.2
2017-May-23 23:00N 51°07' E 001°20'0 0.0
2017-May-23 22:23N 51°07' E 001°20'3 6.9
2017-May-23 22:01N 51°07' E 001°24'918.5
2017-May-23 21:31N 51°02' E 001°37'816.7
2017-May-23 21:00N 50°58' E 001°49'2 3.8
2017-May-23 20:30N 50°58' E 001°52'0 0.0
2017-May-23 20:00N 50°58' E 001°52'3 5.8
2017-May-23 19:30N 50°58' E 001°47'918.7
2017-May-23 19:00N 50°60' E 001°33'918.8
2017-May-23 18:30N 51°07' E 001°22'1 2.9
2017-May-23 18:00N 51°07' E 001°20'0 0.0
2017-May-23 17:30N 51°07' E 001°20'3 5.4
2017-May-23 17:01N 51°07' E 001°24'1020.1
2017-May-23 16:31N 51°01' E 001°38'917.5
2017-May-23 16:01N 50°58' E 001°51'0 0.5
2017-May-23 15:31N 50°58' E 001°51'1 1.4
2017-May-23 15:00N 50°58' E 001°50'1716.7
2017-May-23 14:01N 51°05' E 001°25'4 8.7
2017-May-23 13:30N 51°07' E 001°20'0 0.0
2017-May-23 13:00N 51°07' E 001°20'3 6.1
2017-May-23 12:30N 51°07' E 001°25'917.8
2017-May-23 12:00N 51°02' E 001°37'917.5
2017-May-23 11:30N 50°58' E 001°49'1 2.2
2017-May-23 11:00N 50°58' E 001°51'0 0.0
2017-May-23 10:30N 50°58' E 001°51'714.0
2017-May-23 10:01N 50°59' E 001°40'1019.8
2017-May-23 09:31N 51°05' E 001°27'510.6
2017-May-23 09:01N 51°07' E 001°20'0 0.0
2017-May-23 08:30N 51°07' E 001°20'2 4.9
2017-May-23 08:01N 51°07' E 001°24'816.3
2017-May-23 07:31N 51°04' E 001°36'714.7
2017-May-23 07:00N 50°59' E 001°44'4 8.6
2017-May-23 06:30N 50°58' E 001°51'0 0.0
2017-May-23 06:00N 50°58' E 001°51'4 7.9
2017-May-23 05:31N 50°58' E 001°45'918.2
2017-May-23 05:01N 51°02' E 001°32'917.9
2017-May-23 04:30N 51°07' E 001°20'0 0.0
2017-May-23 04:00N 51°07' E 001°20'0 0.2
2017-May-23 03:30N 51°07' E 001°20'1 2.1
2017-May-23 03:00N 51°07' E 001°22'5 9.6
2017-May-23 02:31N 51°05' E 001°29'815.9
2017-May-23 02:01N 51°01' E 001°39'714.7
2017-May-23 01:30N 50°58' E 001°50'1 1.3
2017-May-23 01:00N 50°58' E 001°51'0 0.0
2017-May-23 00:30N 50°58' E 001°51'4 8.2
2017-May-23 00:00N 50°58' E 001°45'917.1
2017-May-22 23:30N 51°01' E 001°32'815.6
2017-May-22 23:00N 51°06' E 001°22'2 3.7
2017-May-22 22:29N 51°07' E 001°20'0 0.0
2017-May-22 22:00N 51°07' E 001°20'511.1
2017-May-22 21:31N 51°07' E 001°29'817.0
2017-May-22 21:01N 51°01' E 001°38'816.1
2017-May-22 20:30N 50°58' E 001°50'1 1.1
2017-May-22 20:00N 50°58' E 001°51'0 0.6
2017-May-22 19:30N 50°58' E 001°51'1019.2
2017-May-22 19:01N 50°60' E 001°36'1019.7
2017-May-22 18:30N 51°06' E 001°23'2 4.9
2017-May-22 18:00N 51°07' E 001°20'0 0.2
2017-May-22 17:30N 51°07' E 001°20'816.7
2017-May-22 17:00N 51°03' E 001°32'1020.3
2017-May-22 16:31N 50°58' E 001°45'3 6.9
2017-May-22 16:00N 50°58' E 001°51'0 0.0
2017-May-22 15:31N 50°58' E 001°51'4 8.1
2017-May-22 15:00N 50°58' E 001°45'1817.8
2017-May-22 14:00N 51°07' E 001°20'0 0.0
2017-May-22 13:30N 51°07' E 001°20'0 0.0
2017-May-22 12:59N 51°07' E 001°20'4 8.0
2017-May-22 12:30N 51°06' E 001°26'1019.2
2017-May-22 12:00N 51°01' E 001°39'816.3
2017-May-22 11:31N 50°58' E 001°51'0 0.4
2017-May-22 11:00N 50°58' E 001°51'0 0.0
2017-May-22 10:30N 50°58' E 001°51'510.3
2017-May-22 10:01N 50°59' E 001°43'1020.4
2017-May-22 09:31N 51°04' E 001°29'713.2
2017-May-22 09:01N 51°07' E 001°20'0 0.0
2017-May-22 08:31N 51°07' E 001°20'9 9.2
2017-May-22 07:30N 51°04' E 001°33'1019.0
2017-May-22 07:00N 50°58' E 001°46'3 6.8
2017-May-22 06:31N 50°58' E 001°51'0 0.0
2017-May-22 06:01N 50°58' E 001°51'0 0.0
2017-May-22 05:31N 50°58' E 001°51'0 0.0
2017-May-22 05:01N 50°58' E 001°51'0 0.0
2017-May-22 04:31N 50°58' E 001°51'0 0.0
2017-May-22 04:01N 50°58' E 001°51'0 0.0
2017-May-22 03:30N 50°58' E 001°51'0 0.0
2017-May-22 03:00N 50°58' E 001°51'0 0.0
2017-May-22 02:30N 50°58' E 001°51'0 0.0
2017-May-22 02:01N 50°58' E 001°51'0 0.0
2017-May-22 01:31N 50°58' E 001°51'0 0.0
2017-May-22 01:00N 50°58' E 001°51'0 0.0
2017-May-22 00:31N 50°58' E 001°51'0 0.0
2017-May-22 00:01N 50°58' E 001°51'0 0.0
2017-May-21 23:31N 50°58' E 001°51'0 0.0
2017-May-21 23:00N 50°58' E 001°51'0 0.0
2017-May-21 22:31N 50°58' E 001°51'0 0.0
2017-May-21 22:01N 50°58' E 001°51'0 0.0
2017-May-21 21:31N 50°58' E 001°51'0 0.0
2017-May-21 21:01N 50°58' E 001°51'0 0.0
2017-May-21 20:31N 50°58' E 001°51'0 0.0
2017-May-21 20:01N 50°58' E 001°51'0 0.8
2017-May-21 19:31N 50°58' E 001°50'1019.1
2017-May-21 19:01N 50°58' E 001°35'816.7
2017-May-21 18:31N 51°03' E 001°24'510.9
2017-May-21 18:00N 51°07' E 001°20'0 0.0
2017-May-21 17:30N 51°07' E 001°20'4 7.5
2017-May-21 17:01N 51°07' E 001°26'917.9
2017-May-21 16:31N 51°02' E 001°37'917.3
2017-May-21 16:00N 50°58' E 001°50'1 1.4
2017-May-21 15:31N 50°58' E 001°51'0 0.0
2017-May-21 15:01N 50°58' E 001°51'612.4
2017-May-21 14:31N 50°59' E 001°41'1615.7
2017-May-21 13:30N 51°07' E 001°20'0 0.0
2017-May-21 13:00N 51°07' E 001°20'3 6.3
2017-May-21 12:30N 51°07' E 001°25'917.3
2017-May-21 12:00N 51°02' E 001°36'918.1
2017-May-21 11:30N 50°58' E 001°49'1 2.0
2017-May-21 11:00N 50°58' E 001°51'0 0.4
2017-May-21 10:30N 50°58' E 001°51'815.7
2017-May-21 10:01N 50°60' E 001°39'917.7
2017-May-21 09:31N 51°05' E 001°27'510.3
2017-May-21 09:00N 51°07' E 001°20'0 0.0
2017-May-21 08:30N 51°07' E 001°20'0 0.2
2017-May-21 08:01N 51°07' E 001°20'815.9
2017-May-21 07:31N 51°04' E 001°31'918.6
2017-May-21 07:00N 50°58' E 001°44'5 9.1
2017-May-21 06:30N 50°58' E 001°51'0 0.0
2017-May-21 06:00N 50°58' E 001°51'0 0.0
2017-May-21 05:30N 50°58' E 001°51'0 0.0
2017-May-21 05:00N 50°58' E 001°51'0 0.0
2017-May-21 04:31N 50°58' E 001°51'0 0.0
2017-May-21 04:01N 50°58' E 001°51'0 0.0
2017-May-21 03:30N 50°58' E 001°51'0 0.0
2017-May-21 03:00N 50°58' E 001°51'0 0.0
2017-May-21 02:30N 50°58' E 001°51'0 0.0
2017-May-21 02:00N 50°58' E 001°51'0 0.0
2017-May-21 01:30N 50°58' E 001°51'0 0.0
2017-May-21 01:01N 50°58' E 001°51'0 0.0
2017-May-21 00:30N 50°58' E 001°51'0 0.0
2017-May-21 00:00N 50°58' E 001°51'0 0.0
2017-May-20 23:30N 50°58' E 001°51'0 0.0
2017-May-20 23:00N 50°58' E 001°51'0 0.0
2017-May-20 22:30N 50°58' E 001°51'0 0.0
2017-May-20 22:01N 50°58' E 001°51'0 0.0
2017-May-20 21:30N 50°58' E 001°51'0 0.0
2017-May-20 21:00N 50°58' E 001°51'0 0.0
2017-May-20 20:30N 50°58' E 001°51'0 0.0
2017-May-20 20:00N 50°58' E 001°51'0 0.0
2017-May-20 19:31N 50°58' E 001°51'714.6
2017-May-20 19:01N 50°59' E 001°39'1020.4
2017-May-20 18:31N 51°03' E 001°25'510.1
2017-May-20 18:01N 51°07' E 001°20'0 0.0
2017-May-20 17:30N 51°07' E 001°20'2 4.7
2017-May-20 17:00N 51°07' E 001°24'1019.3
2017-May-20 16:31N 51°02' E 001°37'917.9
2017-May-20 16:01N 50°58' E 001°50'1 1.7
2017-May-20 15:30N 50°58' E 001°51'0 0.0
2017-May-20 15:00N 50°58' E 001°51'713.9
2017-May-20 14:31N 50°59' E 001°40'1515.0
2017-May-20 13:30N 51°07' E 001°20'0 0.0
2017-May-20 13:00N 51°07' E 001°20'2 4.9
2017-May-20 12:31N 51°07' E 001°24'1019.0
2017-May-20 12:01N 51°02' E 001°37'918.5
2017-May-20 11:31N 50°58' E 001°50'1 1.1
2017-May-20 11:00N 50°58' E 001°51'0 0.0
2017-May-20 10:31N 50°58' E 001°51'612.3
2017-May-20 10:00N 50°59' E 001°41'1019.7
2017-May-20 09:30N 51°04' E 001°28'611.8
2017-May-20 09:01N 51°07' E 001°20'0 0.0
2017-May-20 08:30N 51°07' E 001°20'0 0.6
2017-May-20 08:00N 51°07' E 001°21'815.9
2017-May-20 07:30N 51°04' E 001°31'918.0
2017-May-20 07:00N 50°59' E 001°43'5 9.8
2017-May-20 06:30N 50°58' E 001°51'0 0.0
2017-May-20 06:00N 50°58' E 001°51'4 7.8
2017-May-20 05:30N 50°58' E 001°45'1019.9
2017-May-20 05:01N 51°04' E 001°32'816.6
2017-May-20 04:30N 51°07' E 001°20'0 0.0
2017-May-20 04:00N 51°07' E 001°20'0 0.0
2017-May-20 03:30N 51°07' E 001°20'2 3.2
2017-May-20 03:00N 51°07' E 001°23'612.3
2017-May-20 02:31N 51°04' E 001°31'815.8
2017-May-20 02:01N 50°59' E 001°41'612.7
2017-May-20 01:30N 50°58' E 001°51'0 0.1
2017-May-20 01:00N 50°58' E 001°51'0 0.0
2017-May-20 00:30N 50°58' E 001°51'0 0.0
2017-May-20 00:00N 50°58' E 001°51'0 0.0
2017-May-19 23:30N 50°58' E 001°51'0 0.0
2017-May-19 23:00N 50°58' E 001°51'0 0.0
2017-May-19 22:30N 50°58' E 001°51'0 0.0
2017-May-19 22:00N 50°58' E 001°51'0 0.0
2017-May-19 21:30N 50°58' E 001°51'0 0.0
2017-May-19 21:00N 50°58' E 001°51'0 0.0
2017-May-19 20:30N 50°58' E 001°51'0 0.0
2017-May-19 20:00N 50°58' E 001°51'0 0.0
2017-May-19 19:30N 50°58' E 001°51'713.4
2017-May-19 19:01N 50°59' E 001°40'1019.8
2017-May-19 18:30N 51°05' E 001°28'510.6
2017-May-19 18:00N 51°07' E 001°20'0 0.0
2017-May-19 17:30N 51°07' E 001°20'1 2.0
2017-May-19 17:00N 51°07' E 001°22'918.8
2017-May-19 16:30N 51°03' E 001°35'918.0
2017-May-19 16:00N 50°58' E 001°47'2 5.0
2017-May-19 15:30N 50°58' E 001°51'0 0.0
2017-May-19 15:00N 50°58' E 001°51'1615.8
2017-May-19 14:00N 51°04' E 001°28'6 6.6
2017-May-19 13:06N 51°07' E 001°20'0 0.0
2017-May-19 13:00N 51°07' E 001°20'2 4.9
2017-May-19 12:30N 51°07' E 001°24'918.7
2017-May-19 12:01N 51°02' E 001°36'918.7
2017-May-19 11:30N 50°58' E 001°50'1 1.5
2017-May-19 11:00N 50°58' E 001°51'0 0.0
2017-May-19 10:30N 50°58' E 001°51'612.9
2017-May-19 10:01N 50°58' E 001°41'1019.5
2017-May-19 09:31N 51°04' E 001°28'611.3
2017-May-19 08:58N 51°07' E 001°20'0 0.0
2017-May-19 08:28N 51°07' E 001°20'0 0.2
2017-May-19 08:01N 51°07' E 001°20'816.0
2017-May-19 07:31N 51°06' E 001°33'918.4
2017-May-19 07:01N 50°59' E 001°43'510.5
2017-May-19 06:31N 50°58' E 001°51'0 0.0
2017-May-19 06:01N 50°58' E 001°51'0 0.7
2017-May-19 05:31N 50°58' E 001°51'918.2
2017-May-19 05:00N 51°00' E 001°36'1019.9
2017-May-19 04:31N 51°06' E 001°23'2 5.0
2017-May-19 04:00N 51°07' E 001°20'0 0.0
2017-May-19 03:30N 51°07' E 001°20'1 1.7
2017-May-19 03:00N 51°07' E 001°21'816.7
2017-May-19 02:30N 51°04' E 001°34'1019.2
2017-May-19 02:01N 50°58' E 001°45'4 7.4
2017-May-19 01:30N 50°58' E 001°51'0 0.1
2017-May-19 01:00N 50°58' E 001°51'815.5
2017-May-19 00:30N 50°58' E 001°39'1019.7
2017-May-19 00:00N 51°04' E 001°27'5 9.9
2017-May-18 23:30N 51°07' E 001°20'0 0.0
2017-May-18 22:58N 51°07' E 001°20'0 0.0
2017-May-18 22:25N 51°07' E 001°20'512.3
2017-May-18 22:01N 51°05' E 001°28'919.0
2017-May-18 21:31N 50°60' E 001°40'714.4
2017-May-18 21:00N 50°58' E 001°51'0 0.0
2017-May-18 20:30N 50°58' E 001°51'0 0.0
2017-May-18 20:00N 50°58' E 001°51'2 4.3
2017-May-18 19:31N 50°58' E 001°48'1019.3
2017-May-18 19:00N 51°01' E 001°33'1019.7
2017-May-18 18:30N 51°07' E 001°21'0 0.7
2017-May-18 17:59N 51°07' E 001°20'0 0.0
2017-May-18 17:30N 51°07' E 001°20'3 6.3
2017-May-18 17:00N 51°07' E 001°25'918.2
2017-May-18 16:30N 51°02' E 001°37'917.2
2017-May-18 16:00N 50°58' E 001°50'1 2.0
2017-May-18 15:30N 50°58' E 001°51'0 0.0
2017-May-18 15:00N 50°58' E 001°51'1616.5
2017-May-18 14:00N 51°05' E 001°27'5 9.8
2017-May-18 13:29N 51°07' E 001°20'0 0.0
2017-May-18 13:01N 51°07' E 001°20'1 2.6
2017-May-18 12:30N 51°07' E 001°22'1019.5
2017-May-18 12:00N 51°01' E 001°35'1019.3
2017-May-18 11:30N 50°58' E 001°49'1 2.1
2017-May-18 11:00N 50°58' E 001°51'0 0.3
2017-May-18 10:30N 50°58' E 001°51'815.3
2017-May-18 10:00N 50°59' E 001°39'1019.2
2017-May-18 09:30N 51°04' E 001°26'5 6.4
2017-May-18 08:45N 51°07' E 001°20'0 0.0
2017-May-18 08:30N 51°07' E 001°20'0 0.2
2017-May-18 08:00N 51°07' E 001°20'817.1
2017-May-18 07:30N 51°03' E 001°32'1019.4
2017-May-18 07:00N 50°58' E 001°45'  
Track history (hours):
 
Tides and Currents Weather Stations Pressure Air Temp Water Temp Dewpoint Dewpoint Depression Visibility Wind Speed Wind Dir Waves Ship Positions

Pride Of Burgundy

Operator: P & O Ferries

Last reported at 2017-May-28 06:30 UTC. Time now 2017-May-28 06:45 UTC.
Position N 50°58' E 001°51'.

Length 180 m; draft 6.2 m.

Type: Passenger vessel. MMSI: 232001470.

Date/timePositionNaut miles runAvg speedWind from/ knotsBaromVisibWave heightAir tempDewpointWater temp
2017-May-28 06:30N 50°58' E 001°51'2 3.5
2017-May-28 06:00N 50°58' E 001°48'917.7
2017-May-28 05:30N 51°01' E 001°35'1020.3
2017-May-28 05:00N 51°07' E 001°22'1 2.2
2017-May-28 04:30N 51°07' E 001°20'0 0.1
2017-May-28 04:00N 51°07' E 001°20'714.1
2017-May-28 03:30N 51°04' E 001°30'918.7
2017-May-28 03:00N 50°59' E 001°43'510.7
2017-May-28 02:30N 50°58' E 001°51'0 0.0
2017-May-28 02:00N 50°58' E 001°51'0 0.0
2017-May-28 01:30N 50°58' E 001°51'4 7.1
2017-May-28 01:01N 50°58' E 001°45'1020.9
2017-May-28 00:31N 51°03' E 001°30'816.2
2017-May-28 00:01N 51°07' E 001°20'0 0.0
2017-May-27 23:30N 51°07' E 001°20'1 2.3
2017-May-27 23:00N 51°07' E 001°22'1019.5
2017-May-27 22:30N 51°02' E 001°35'918.8
2017-May-27 22:00N 50°58' E 001°49'1 2.8
2017-May-27 21:31N 50°58' E 001°51'0 0.0
2017-May-27 21:01N 50°58' E 001°51'4 8.7
2017-May-27 20:30N 50°58' E 001°44'917.4
2017-May-27 20:00N 51°02' E 001°32'918.2
2017-May-27 19:30N 51°07' E 001°20'0 0.3
2017-May-27 19:00N 51°07' E 001°20'0 0.0
2017-May-27 18:30N 51°07' E 001°20'0 0.0
2017-May-27 18:00N 51°07' E 001°20'0 0.0
2017-May-27 17:30N 51°07' E 001°20'4 8.0
2017-May-27 17:00N 51°06' E 001°26'918.2
2017-May-27 16:30N 51°01' E 001°38'816.4
2017-May-27 16:00N 50°58' E 001°51'0 0.8
2017-May-27 15:30N 50°58' E 001°51'0 0.8
2017-May-27 15:01N 50°58' E 001°51'918.8
2017-May-27 14:31N 51°01' E 001°36'1212.0
2017-May-27 13:30N 51°07' E 001°20'0 0.0
2017-May-27 13:00N 51°07' E 001°20'5 9.1
2017-May-27 12:30N 51°06' E 001°27'918.7
2017-May-27 12:00N 51°00' E 001°39'815.6
2017-May-27 11:31N 50°58' E 001°51'1 1.1
2017-May-27 11:00N 50°58' E 001°52'0 0.0
2017-May-27 10:31N 50°58' E 001°52'815.3
2017-May-27 10:00N 50°60' E 001°40'1019.3
2017-May-27 09:30N 51°05' E 001°27'5 9.8
2017-May-27 09:00N 51°07' E 001°20'0 0.0
2017-May-27 08:30N 51°07' E 001°20'0 0.3
2017-May-27 08:00N 51°07' E 001°20'816.2
2017-May-27 07:31N 51°03' E 001°31'918.5
2017-May-27 07:00N 50°58' E 001°44'5 9.3
2017-May-27 06:30N 50°58' E 001°51'0 0.0
2017-May-27 06:01N 50°58' E 001°51'3 6.4
2017-May-27 05:30N 50°58' E 001°46'817.0
2017-May-27 05:00N 50°60' E 001°33'816.9
2017-May-27 04:30N 51°06' E 001°24'3 5.4
2017-May-27 04:00N 51°07' E 001°20'0 0.0
2017-May-27 03:30N 51°07' E 001°20'0 0.2
2017-May-27 03:00N 51°07' E 001°20'611.7
2017-May-27 02:30N 51°05' E 001°29'816.1
2017-May-27 02:01N 51°01' E 001°39'815.3
2017-May-27 01:31N 50°58' E 001°51'0 0.5
2017-May-27 01:00N 50°58' E 001°51'0 0.0
2017-May-27 00:30N 50°58' E 001°51'3 6.0
2017-May-27 00:00N 50°58' E 001°46'918.1
2017-May-26 23:30N 50°60' E 001°32'816.5
2017-May-26 23:00N 51°06' E 001°23'2 4.7
2017-May-26 22:30N 51°07' E 001°20'0 0.0
2017-May-26 22:00N 51°07' E 001°20'510.5
2017-May-26 21:30N 51°06' E 001°28'1020.1
2017-May-26 21:00N 50°60' E 001°40'713.7
2017-May-26 20:30N 50°58' E 001°51'0 0.0
2017-May-26 20:01N 50°58' E 001°51'1 2.8
2017-May-26 19:30N 50°58' E 001°49'816.8
2017-May-26 19:00N 50°59' E 001°36'918.6
2017-May-26 18:30N 51°05' E 001°24'4 7.0
2017-May-26 18:00N 51°07' E 001°20'0 0.0
2017-May-26 17:30N 51°07' E 001°20'4 7.8
2017-May-26 17:00N 51°06' E 001°26'816.7
2017-May-26 16:30N 51°01' E 001°37'816.7
2017-May-26 16:00N 50°58' E 001°49'1 2.5
2017-May-26 15:30N 50°58' E 001°51'0 0.1
2017-May-26 15:00N 50°58' E 001°51'1616.2
2017-May-26 14:00N 51°05' E 001°27'510.6
2017-May-26 13:30N 51°07' E 001°20'0 0.0
2017-May-26 13:00N 51°07' E 001°20'3 5.4
2017-May-26 12:30N 51°07' E 001°24'1019.3
2017-May-26 12:00N 51°01' E 001°36'816.8
2017-May-26 11:31N 50°58' E 001°49'1 2.4
2017-May-26 11:00N 50°58' E 001°51'0 0.0
2017-May-26 10:30N 50°58' E 001°51'713.6
2017-May-26 10:00N 50°59' E 001°40'1019.6
2017-May-26 09:31N 51°05' E 001°27'510.7
2017-May-26 09:01N 51°07' E 001°20'0 0.0
2017-May-26 08:30N 51°07' E 001°20'0 0.1
2017-May-26 08:00N 51°07' E 001°20'816.3
2017-May-26 07:30N 51°04' E 001°32'918.3
2017-May-26 07:00N 50°59' E 001°44'5 9.4
2017-May-26 06:30N 50°58' E 001°51'0 0.0
2017-May-26 06:00N 50°58' E 001°51'0 0.0
2017-May-26 05:30N 50°58' E 001°51'713.2
2017-May-26 05:00N 50°59' E 001°41'917.7
2017-May-26 04:30N 51°04' E 001°30'712.7
2017-May-26 03:58N 51°07' E 001°20'0 0.0
2017-May-26 03:28N 51°07' E 001°20'0 0.1
2017-May-26 03:00N 51°07' E 001°20'714.2
2017-May-26 02:31N 51°06' E 001°31'917.1
2017-May-26 02:01N 50°60' E 001°41'713.1
2017-May-26 01:31N 50°58' E 001°51'0 0.3
2017-May-26 01:00N 50°58' E 001°51'0 0.0
2017-May-26 00:30N 50°58' E 001°51'0 0.0
2017-May-26 00:00N 50°58' E 001°51'0 0.0
2017-May-25 23:30N 50°58' E 001°51'0 0.0
2017-May-25 23:00N 50°58' E 001°51'0 0.0
2017-May-25 22:30N 50°58' E 001°51'0 0.0
2017-May-25 22:00N 50°58' E 001°51'0 0.0
2017-May-25 21:30N 50°58' E 001°51'0 0.0
2017-May-25 21:00N 50°58' E 001°51'0 0.0
2017-May-25 20:30N 50°58' E 001°51'0 0.0
2017-May-25 20:00N 50°58' E 001°51'510.2
2017-May-25 19:31N 50°58' E 001°43'917.1
2017-May-25 19:00N 51°03' E 001°31'814.9
2017-May-25 18:26N 51°07' E 001°20'0 0.0
2017-May-25 17:57N 51°07' E 001°20'0 0.1
2017-May-25 17:30N 51°07' E 001°20'816.4
2017-May-25 17:00N 51°04' E 001°32'1020.1
2017-May-25 16:31N 50°58' E 001°45'4 7.7
2017-May-25 16:01N 50°58' E 001°51'0 0.0
2017-May-25 15:30N 50°58' E 001°51'4 7.1
2017-May-25 15:00N 50°58' E 001°45'1818.2
2017-May-25 14:00N 51°07' E 001°20'0 0.0
2017-May-25 13:30N 51°07' E 001°20'0 0.2
2017-May-25 13:00N 51°07' E 001°20'815.5
2017-May-25 12:31N 51°05' E 001°32'918.8
2017-May-25 12:01N 50°59' E 001°43'510.0
2017-May-25 11:30N 50°58' E 001°51'0 0.0
2017-May-25 11:00N 50°58' E 001°51'0 0.0
2017-May-25 10:30N 50°58' E 001°51'815.3
2017-May-25 10:01N 50°59' E 001°39'1019.6
2017-May-25 09:31N 51°05' E 001°26'5 9.2
2017-May-25 09:00N 51°07' E 001°20'0 0.0
2017-May-25 08:30N 51°07' E 001°20'3 5.1
2017-May-25 08:01N 51°07' E 001°24'1020.1
2017-May-25 07:31N 51°01' E 001°37'917.9
2017-May-25 07:00N 50°58' E 001°51'0 0.5
2017-May-25 06:30N 50°58' E 001°51'0 0.0
2017-May-25 06:00N 50°58' E 001°51'2 4.0
2017-May-25 05:31N 50°58' E 001°48'917.2
2017-May-25 05:00N 51°00' E 001°35'1019.4
2017-May-25 04:30N 51°06' E 001°22'2 3.3
2017-May-25 03:58N 51°07' E 001°20'0 0.0
2017-May-25 03:29N 51°07' E 001°20'0 0.0
2017-May-25 02:59N 51°07' E 001°20'511.2
2017-May-25 02:31N 51°07' E 001°28'1019.3
2017-May-25 02:01N 51°00' E 001°39'715.0
2017-May-25 01:31N 50°58' E 001°51'0 0.1
2017-May-25 01:00N 50°58' E 001°51'0 0.0
2017-May-25 00:31N 50°58' E 001°51'1 2.4
2017-May-25 00:00N 50°58' E 001°49'918.2
2017-May-24 23:31N 50°60' E 001°35'816.3
2017-May-24 23:01N 51°05' E 001°25'4 7.9
2017-May-24 22:31N 51°07' E 001°20'0 0.0
2017-May-24 21:59N 51°07' E 001°20'4 8.3
2017-May-24 21:30N 51°06' E 001°26'1019.5
2017-May-24 21:00N 51°01' E 001°39'815.5
2017-May-24 20:30N 50°58' E 001°51'0 0.6
2017-May-24 20:01N 50°58' E 001°51'0 0.4
2017-May-24 19:31N 50°58' E 001°51'816.7
2017-May-24 19:00N 50°58' E 001°37'918.8
2017-May-24 18:30N 51°04' E 001°25'5 9.5
2017-May-24 17:59N 51°07' E 001°20'0 0.0
2017-May-24 17:29N 51°07' E 001°20'4 7.9
2017-May-24 17:00N 51°06' E 001°26'1019.9
2017-May-24 16:30N 51°00' E 001°38'816.3
2017-May-24 16:00N 50°58' E 001°51'0 0.2
2017-May-24 15:30N 50°58' E 001°51'1 2.9
2017-May-24 15:01N 50°58' E 001°49'1818.2
2017-May-24 14:01N 51°06' E 001°23'2 4.0
2017-May-24 13:30N 51°07' E 001°20'0 0.0
2017-May-24 13:00N 51°07' E 001°20'713.6
2017-May-24 12:31N 51°05' E 001°30'918.7
2017-May-24 12:00N 50°59' E 001°42'611.5
2017-May-24 11:30N 50°58' E 001°51'0 0.0
2017-May-24 11:00N 50°58' E 001°51'4 7.5
2017-May-24 10:30N 50°58' E 001°45'918.4
2017-May-24 10:01N 51°01' E 001°31'918.5
2017-May-24 09:31N 51°07' E 001°20'0 0.4
2017-May-24 09:00N 51°07' E 001°20'0 0.0
2017-May-24 08:30N 51°07' E 001°20'3 5.8
2017-May-24 08:00N 51°07' E 001°25'714.3
2017-May-24 07:30N 51°03' E 001°34'917.3
2017-May-24 07:01N 50°58' E 001°45'4 7.6
2017-May-24 06:30N 50°58' E 001°51'0 0.0
2017-May-24 06:00N 50°58' E 001°51'4 7.4
2017-May-24 05:30N 50°58' E 001°45'918.3
2017-May-24 05:00N 51°01' E 001°32'918.1
2017-May-24 04:31N 51°07' E 001°21'0 0.7
2017-May-24 04:01N 51°07' E 001°20'0 0.0
2017-May-24 03:30N 51°07' E 001°20'0 0.3
2017-May-24 03:00N 51°07' E 001°20'714.1
2017-May-24 02:30N 51°05' E 001°30'816.5
2017-May-24 02:00N 50°60' E 001°41'612.9
2017-May-24 01:30N 50°58' E 001°51'0 0.1
2017-May-24 01:00N 50°58' E 001°51'0 0.0
2017-May-24 00:30N 50°58' E 001°51'715.0
2017-May-24 00:01N 50°58' E 001°39'918.8
2017-May-23 23:31N 51°04' E 001°27'611.2
2017-May-23 23:00N 51°07' E 001°20'0 0.0
2017-May-23 22:23N 51°07' E 001°20'3 6.9
2017-May-23 22:01N 51°07' E 001°24'918.5
2017-May-23 21:31N 51°02' E 001°37'816.7
2017-May-23 21:00N 50°58' E 001°49'2 3.8
2017-May-23 20:30N 50°58' E 001°52'0 0.0
2017-May-23 20:00N 50°58' E 001°52'3 5.8
2017-May-23 19:30N 50°58' E 001°47'918.7
2017-May-23 19:00N 50°60' E 001°33'918.8
2017-May-23 18:30N 51°07' E 001°22'1 2.9
2017-May-23 18:00N 51°07' E 001°20'0 0.0
2017-May-23 17:30N 51°07' E 001°20'3 5.4
2017-May-23 17:01N 51°07' E 001°24'1020.1
2017-May-23 16:31N 51°01' E 001°38'917.5
2017-May-23 16:01N 50°58' E 001°51'0 0.5
2017-May-23 15:31N 50°58' E 001°51'1 1.4
2017-May-23 15:00N 50°58' E 001°50'1716.7
2017-May-23 14:01N 51°05' E 001°25'4 8.7
2017-May-23 13:30N 51°07' E 001°20'0 0.0
2017-May-23 13:00N 51°07' E 001°20'3 6.1
2017-May-23 12:30N 51°07' E 001°25'917.8
2017-May-23 12:00N 51°02' E 001°37'917.5
2017-May-23 11:30N 50°58' E 001°49'1 2.2
2017-May-23 11:00N 50°58' E 001°51'0 0.0
2017-May-23 10:30N 50°58' E 001°51'714.0
2017-May-23 10:01N 50°59' E 001°40'1019.8
2017-May-23 09:31N 51°05' E 001°27'510.6
2017-May-23 09:01N 51°07' E 001°20'0 0.0
2017-May-23 08:30N 51°07' E 001°20'2 4.9
2017-May-23 08:01N 51°07' E 001°24'816.3
2017-May-23 07:31N 51°04' E 001°36'714.7
2017-May-23 07:00N 50°59' E 001°44'4 8.6
2017-May-23 06:30N 50°58' E 001°51'0 0.0
2017-May-23 06:00N 50°58' E 001°51'4 7.9
2017-May-23 05:31N 50°58' E 001°45'918.2
2017-May-23 05:01N 51°02' E 001°32'917.9
2017-May-23 04:30N 51°07' E 001°20'0 0.0
2017-May-23 04:00N 51°07' E 001°20'0 0.2
2017-May-23 03:30N 51°07' E 001°20'1 2.1
2017-May-23 03:00N 51°07' E 001°22'5 9.6
2017-May-23 02:31N 51°05' E 001°29'815.9
2017-May-23 02:01N 51°01' E 001°39'714.7
2017-May-23 01:30N 50°58' E 001°50'1 1.3
2017-May-23 01:00N 50°58' E 001°51'0 0.0
2017-May-23 00:30N 50°58' E 001°51'4 8.2
2017-May-23 00:00N 50°58' E 001°45'917.1
2017-May-22 23:30N 51°01' E 001°32'815.6
2017-May-22 23:00N 51°06' E 001°22'2 3.7
2017-May-22 22:29N 51°07' E 001°20'0 0.0
2017-May-22 22:00N 51°07' E 001°20'511.1
2017-May-22 21:31N 51°07' E 001°29'817.0
2017-May-22 21:01N 51°01' E 001°38'816.1
2017-May-22 20:30N 50°58' E 001°50'1 1.1
2017-May-22 20:00N 50°58' E 001°51'0 0.6
2017-May-22 19:30N 50°58' E 001°51'1019.2
2017-May-22 19:01N 50°60' E 001°36'1019.7
2017-May-22 18:30N 51°06' E 001°23'2 4.9
2017-May-22 18:00N 51°07' E 001°20'0 0.2
2017-May-22 17:30N 51°07' E 001°20'816.7
2017-May-22 17:00N 51°03' E 001°32'1020.3
2017-May-22 16:31N 50°58' E 001°45'3 6.9
2017-May-22 16:00N 50°58' E 001°51'0 0.0
2017-May-22 15:31N 50°58' E 001°51'4 8.1
2017-May-22 15:00N 50°58' E 001°45'1817.8
2017-May-22 14:00N 51°07' E 001°20'0 0.0
2017-May-22 13:30N 51°07' E 001°20'0 0.0
2017-May-22 12:59N 51°07' E 001°20'4 8.0
2017-May-22 12:30N 51°06' E 001°26'1019.2
2017-May-22 12:00N 51°01' E 001°39'816.3
2017-May-22 11:31N 50°58' E 001°51'0 0.4
2017-May-22 11:00N 50°58' E 001°51'0 0.0
2017-May-22 10:30N 50°58' E 001°51'510.3
2017-May-22 10:01N 50°59' E 001°43'1020.4
2017-May-22 09:31N 51°04' E 001°29'713.2
2017-May-22 09:01N 51°07' E 001°20'0 0.0
2017-May-22 08:31N 51°07' E 001°20'9 9.2
2017-May-22 07:30N 51°04' E 001°33'1019.0
2017-May-22 07:00N 50°58' E 001°46'3 6.8
2017-May-22 06:31N 50°58' E 001°51'0 0.0
2017-May-22 06:01N 50°58' E 001°51'0 0.0
2017-May-22 05:31N 50°58' E 001°51'0 0.0
2017-May-22 05:01N 50°58' E 001°51'0 0.0
2017-May-22 04:31N 50°58' E 001°51'0 0.0
2017-May-22 04:01N 50°58' E 001°51'0 0.0
2017-May-22 03:30N 50°58' E 001°51'0 0.0
2017-May-22 03:00N 50°58' E 001°51'0 0.0
2017-May-22 02:30N 50°58' E 001°51'0 0.0
2017-May-22 02:01N 50°58' E 001°51'0 0.0
2017-May-22 01:31N 50°58' E 001°51'0 0.0
2017-May-22 01:00N 50°58' E 001°51'0 0.0
2017-May-22 00:31N 50°58' E 001°51'0 0.0
2017-May-22 00:01N 50°58' E 001°51'0 0.0
2017-May-21 23:31N 50°58' E 001°51'0 0.0
2017-May-21 23:00N 50°58' E 001°51'0 0.0
2017-May-21 22:31N 50°58' E 001°51'0 0.0
2017-May-21 22:01N 50°58' E 001°51'0 0.0
2017-May-21 21:31N 50°58' E 001°51'0 0.0
2017-May-21 21:01N 50°58' E 001°51'0 0.0
2017-May-21 20:31N 50°58' E 001°51'0 0.0
2017-May-21 20:01N 50°58' E 001°51'0 0.8
2017-May-21 19:31N 50°58' E 001°50'1019.1
2017-May-21 19:01N 50°58' E 001°35'816.7
2017-May-21 18:31N 51°03' E 001°24'510.9
2017-May-21 18:00N 51°07' E 001°20'0 0.0
2017-May-21 17:30N 51°07' E 001°20'4 7.5
2017-May-21 17:01N 51°07' E 001°26'917.9
2017-May-21 16:31N 51°02' E 001°37'917.3
2017-May-21 16:00N 50°58' E 001°50'1 1.4
2017-May-21 15:31N 50°58' E 001°51'0 0.0
2017-May-21 15:01N 50°58' E 001°51'612.4
2017-May-21 14:31N 50°59' E 001°41'1615.7
2017-May-21 13:30N 51°07' E 001°20'0 0.0
2017-May-21 13:00N 51°07' E 001°20'3 6.3
2017-May-21 12:30N 51°07' E 001°25'917.3
2017-May-21 12:00N 51°02' E 001°36'918.1
2017-May-21 11:30N 50°58' E 001°49'1 2.0
2017-May-21 11:00N 50°58' E 001°51'0 0.4
2017-May-21 10:30N 50°58' E 001°51'815.7
2017-May-21 10:01N 50°60' E 001°39'917.7
2017-May-21 09:31N 51°05' E 001°27'510.3
2017-May-21 09:00N 51°07' E 001°20'0 0.0
2017-May-21 08:30N 51°07' E 001°20'0 0.2
2017-May-21 08:01N 51°07' E 001°20'815.9
2017-May-21 07:31N 51°04' E 001°31'918.6
2017-May-21 07:00N 50°58' E 001°44'5 9.1
2017-May-21 06:30N 50°58' E 001°51'0 0.0
2017-May-21 06:00N 50°58' E 001°51'0 0.0
2017-May-21 05:30N 50°58' E 001°51'0 0.0
2017-May-21 05:00N 50°58' E 001°51'0 0.0
2017-May-21 04:31N 50°58' E 001°51'0 0.0
2017-May-21 04:01N 50°58' E 001°51'0 0.0
2017-May-21 03:30N 50°58' E 001°51'0 0.0
2017-May-21 03:00N 50°58' E 001°51'0 0.0
2017-May-21 02:30N 50°58' E 001°51'0 0.0
2017-May-21 02:00N 50°58' E 001°51'0 0.0
2017-May-21 01:30N 50°58' E 001°51'0 0.0
2017-May-21 01:01N 50°58' E 001°51'0 0.0
2017-May-21 00:30N 50°58' E 001°51'0 0.0
2017-May-21 00:00N 50°58' E 001°51'0 0.0
2017-May-20 23:30N 50°58' E 001°51'0 0.0
2017-May-20 23:00N 50°58' E 001°51'0 0.0
2017-May-20 22:30N 50°58' E 001°51'0 0.0
2017-May-20 22:01N 50°58' E 001°51'0 0.0
2017-May-20 21:30N 50°58' E 001°51'0 0.0
2017-May-20 21:00N 50°58' E 001°51'0 0.0
2017-May-20 20:30N 50°58' E 001°51'0 0.0
2017-May-20 20:00N 50°58' E 001°51'0 0.0
2017-May-20 19:31N 50°58' E 001°51'714.6
2017-May-20 19:01N 50°59' E 001°39'1020.4
2017-May-20 18:31N 51°03' E 001°25'510.1
2017-May-20 18:01N 51°07' E 001°20'0 0.0
2017-May-20 17:30N 51°07' E 001°20'2 4.7
2017-May-20 17:00N 51°07' E 001°24'1019.3
2017-May-20 16:31N 51°02' E 001°37'917.9
2017-May-20 16:01N 50°58' E 001°50'1 1.7
2017-May-20 15:30N 50°58' E 001°51'0 0.0
2017-May-20 15:00N 50°58' E 001°51'713.9
2017-May-20 14:31N 50°59' E 001°40'1515.0
2017-May-20 13:30N 51°07' E 001°20'0 0.0
2017-May-20 13:00N 51°07' E 001°20'2 4.9
2017-May-20 12:31N 51°07' E 001°24'1019.0
2017-May-20 12:01N 51°02' E 001°37'918.5
2017-May-20 11:31N 50°58' E 001°50'1 1.1
2017-May-20 11:00N 50°58' E 001°51'0 0.0
2017-May-20 10:31N 50°58' E 001°51'612.3
2017-May-20 10:00N 50°59' E 001°41'1019.7
2017-May-20 09:30N 51°04' E 001°28'611.8
2017-May-20 09:01N 51°07' E 001°20'0 0.0
2017-May-20 08:30N 51°07' E 001°20'0 0.6
2017-May-20 08:00N 51°07' E 001°21'815.9
2017-May-20 07:30N 51°04' E 001°31'918.0
2017-May-20 07:00N 50°59' E 001°43'5 9.8
2017-May-20 06:30N 50°58' E 001°51'0 0.0
2017-May-20 06:00N 50°58' E 001°51'4 7.8
2017-May-20 05:30N 50°58' E 001°45'1019.9
2017-May-20 05:01N 51°04' E 001°32'816.6
2017-May-20 04:30N 51°07' E 001°20'0 0.0
2017-May-20 04:00N 51°07' E 001°20'0 0.0
2017-May-20 03:30N 51°07' E 001°20'2 3.2
2017-May-20 03:00N 51°07' E 001°23'612.3
2017-May-20 02:31N 51°04' E 001°31'815.8
2017-May-20 02:01N 50°59' E 001°41'612.7
2017-May-20 01:30N 50°58' E 001°51'0 0.1
2017-May-20 01:00N 50°58' E 001°51'0 0.0
2017-May-20 00:30N 50°58' E 001°51'0 0.0
2017-May-20 00:00N 50°58' E 001°51'0 0.0
2017-May-19 23:30N 50°58' E 001°51'0 0.0
2017-May-19 23:00N 50°58' E 001°51'0 0.0
2017-May-19 22:30N 50°58' E 001°51'0 0.0
2017-May-19 22:00N 50°58' E 001°51'0 0.0
2017-May-19 21:30N 50°58' E 001°51'0 0.0
2017-May-19 21:00N 50°58' E 001°51'0 0.0
2017-May-19 20:30N 50°58' E 001°51'0 0.0
2017-May-19 20:00N 50°58' E 001°51'0 0.0
2017-May-19 19:30N 50°58' E 001°51'713.4
2017-May-19 19:01N 50°59' E 001°40'1019.8
2017-May-19 18:30N 51°05' E 001°28'510.6
2017-May-19 18:00N 51°07' E 001°20'0 0.0
2017-May-19 17:30N 51°07' E 001°20'1 2.0
2017-May-19 17:00N 51°07' E 001°22'918.8
2017-May-19 16:30N 51°03' E 001°35'918.0
2017-May-19 16:00N 50°58' E 001°47'2 5.0
2017-May-19 15:30N 50°58' E 001°51'0 0.0
2017-May-19 15:00N 50°58' E 001°51'1615.8
2017-May-19 14:00N 51°04' E 001°28'6 6.6
2017-May-19 13:06N 51°07' E 001°20'0 0.0
2017-May-19 13:00N 51°07' E 001°20'2 4.9
2017-May-19 12:30N 51°07' E 001°24'918.7
2017-May-19 12:01N 51°02' E 001°36'918.7
2017-May-19 11:30N 50°58' E 001°50'1 1.5
2017-May-19 11:00N 50°58' E 001°51'0 0.0
2017-May-19 10:30N 50°58' E 001°51'612.9
2017-May-19 10:01N 50°58' E 001°41'1019.5
2017-May-19 09:31N 51°04' E 001°28'611.3
2017-May-19 08:58N 51°07' E 001°20'0 0.0
2017-May-19 08:28N 51°07' E 001°20'0 0.2
2017-May-19 08:01N 51°07' E 001°20'816.0
2017-May-19 07:31N 51°06' E 001°33'918.4
2017-May-19 07:01N 50°59' E 001°43'510.5
2017-May-19 06:31N 50°58' E 001°51'0 0.0
2017-May-19 06:01N 50°58' E 001°51'0 0.7
2017-May-19 05:31N 50°58' E 001°51'918.2
2017-May-19 05:00N 51°00' E 001°36'1019.9
2017-May-19 04:31N 51°06' E 001°23'2 5.0
2017-May-19 04:00N 51°07' E 001°20'0 0.0
2017-May-19 03:30N 51°07' E 001°20'1 1.7
2017-May-19 03:00N 51°07' E 001°21'816.7
2017-May-19 02:30N 51°04' E 001°34'1019.2
2017-May-19 02:01N 50°58' E 001°45'4 7.4
2017-May-19 01:30N 50°58' E 001°51'0 0.1
2017-May-19 01:00N 50°58' E 001°51'815.5
2017-May-19 00:30N 50°58' E 001°39'1019.7
2017-May-19 00:00N 51°04' E 001°27'5 9.9
2017-May-18 23:30N 51°07' E 001°20'0 0.0
2017-May-18 22:58N 51°07' E 001°20'0 0.0
2017-May-18 22:25N 51°07' E 001°20'512.3
2017-May-18 22:01N 51°05' E 001°28'919.0
2017-May-18 21:31N 50°60' E 001°40'714.4
2017-May-18 21:00N 50°58' E 001°51'0 0.0
2017-May-18 20:30N 50°58' E 001°51'0 0.0
2017-May-18 20:00N 50°58' E 001°51'2 4.3
2017-May-18 19:31N 50°58' E 001°48'1019.3
2017-May-18 19:00N 51°01' E 001°33'1019.7
2017-May-18 18:30N 51°07' E 001°21'0 0.7
2017-May-18 17:59N 51°07' E 001°20'0 0.0
2017-May-18 17:30N 51°07' E 001°20'3 6.3
2017-May-18 17:00N 51°07' E 001°25'918.2
2017-May-18 16:30N 51°02' E 001°37'917.2
2017-May-18 16:00N 50°58' E 001°50'1 2.0
2017-May-18 15:30N 50°58' E 001°51'0 0.0
2017-May-18 15:00N 50°58' E 001°51'1616.5
2017-May-18 14:00N 51°05' E 001°27'5 9.8
2017-May-18 13:29N 51°07' E 001°20'0 0.0
2017-May-18 13:01N 51°07' E 001°20'1 2.6
2017-May-18 12:30N 51°07' E 001°22'1019.5
2017-May-18 12:00N 51°01' E 001°35'1019.3
2017-May-18 11:30N 50°58' E 001°49'1 2.1
2017-May-18 11:00N 50°58' E 001°51'0 0.3
2017-May-18 10:30N 50°58' E 001°51'815.3
2017-May-18 10:00N 50°59' E 001°39'1019.2
2017-May-18 09:30N 51°04' E 001°26'5 6.4
2017-May-18 08:45N 51°07' E 001°20'0 0.0
2017-May-18 08:30N 51°07' E 001°20'0 0.2
2017-May-18 08:00N 51°07' E 001°20'817.1
2017-May-18 07:30N 51°03' E 001°32'1019.4
2017-May-18 07:00N 50°58' E 001°45'  

Dump ship's entire track history